Terminal Aerodrome Forecast
Issued by NWS

Home | Current Version | Previous Version | Text Only | Print | Product List | Glossary On
Versions: 1 2 3 4 5 6 7 8 9 10 11 12 13 14 15 16 17 18 19 20
000
FTUS43 KPAH 190500
TAFCGI
TAF
KCGI 190520Z 1906/2006 00000KT 2SM BR SCT200
      TEMPO 1908/1912 1/2SM FG BKN005
     FM191400 23006KT P6SM SCT050=

USA.gov is the U.S. government's official web portal to all federal, state and local government web resources and services.